createdAt,value
2022-09-25T00:00:24.124Z,21.97
2022-09-25T00:03:32.431Z,18.13
2022-09-25T00:06:38.056Z,15.53
2022-09-25T00:09:44.532Z,15.17
2022-09-25T00:12:52.834Z,15.97
2022-09-25T00:16:00.317Z,18.57
2022-09-25T00:19:22.912Z,16.67
2022-09-25T00:22:30.426Z,14.83
2022-09-25T00:25:36.877Z,14.60
2022-09-25T00:28:46.457Z,16.40
2022-09-25T00:31:52.155Z,12.27
2022-09-25T00:34:58.546Z,14.03
2022-09-25T00:38:04.106Z,12.37
2022-09-25T00:41:11.292Z,9.47
2022-09-25T00:44:51.194Z,8.33
2022-09-25T00:48:03.904Z,8.07
2022-09-25T00:51:09.482Z,7.93
2022-09-25T00:54:19.382Z,9.17
2022-09-25T00:57:30.202Z,7.73
2022-09-25T01:00:37.255Z,7.47
2022-09-25T01:03:47.483Z,8.60
2022-09-25T01:06:54.134Z,7.07
2022-09-25T01:10:03.019Z,6.60
2022-09-25T01:13:10.035Z,6.83
2022-09-25T01:16:20.163Z,20.83
2022-09-25T01:19:52.797Z,6.60
2022-09-25T01:23:17.283Z,6.73
2022-09-25T01:26:47.284Z,6.00
2022-09-25T01:30:02.557Z,7.43
2022-09-25T01:33:18.384Z,5.93
2022-09-25T01:36:32.341Z,8.07
2022-09-25T01:39:48.511Z,6.93
2022-09-25T01:43:01.160Z,6.97
2022-09-25T01:46:15.294Z,6.30
2022-09-25T01:49:26.101Z,5.17
2022-09-25T01:52:38.328Z,7.17
2022-09-25T01:55:49.238Z,6.73
2022-09-25T01:59:02.836Z,6.70
2022-09-25T02:02:16.874Z,6.27
2022-09-25T02:05:28.518Z,9.70
2022-09-25T02:08:39.815Z,7.90
2022-09-25T02:11:52.342Z,6.17
2022-09-25T02:15:02.941Z,5.67
2022-09-25T02:18:33.513Z,6.40
2022-09-25T02:21:50.738Z,6.83
2022-09-25T02:25:00.882Z,6.67
2022-09-25T02:28:11.683Z,6.50
2022-09-25T02:31:21.191Z,7.57
2022-09-25T02:34:32.618Z,7.20
2022-09-25T02:37:39.971Z,7.03
2022-09-25T02:40:51.825Z,7.53
2022-09-25T02:44:14.922Z,6.57
2022-09-25T02:47:32.665Z,5.87
2022-09-25T02:50:48.909Z,6.03
2022-09-25T02:53:59.788Z,7.60
2022-09-25T02:57:12.415Z,5.80
2022-09-25T03:00:19.839Z,5.47
2022-09-25T03:03:33.038Z,5.53
2022-09-25T03:06:43.267Z,6.50
2022-09-25T03:09:53.524Z,6.00
2022-09-25T03:12:59.062Z,6.97
2022-09-25T03:16:10.202Z,8.57
2022-09-25T03:19:16.758Z,7.63
2022-09-25T03:22:25.998Z,7.83
2022-09-25T03:25:31.572Z,8.07
2022-09-25T03:28:38.395Z,8.00
2022-09-25T03:31:45.725Z,8.10
2022-09-25T03:34:55.215Z,9.57
2022-09-25T03:38:03.807Z,9.27
2022-09-25T03:41:11.871Z,9.47
2022-09-25T03:44:17.535Z,10.03
2022-09-25T03:47:24.194Z,10.13
2022-09-25T03:50:30.010Z,8.23
2022-09-25T03:53:40.416Z,6.73
2022-09-25T03:56:45.951Z,8.73
2022-09-25T03:59:52.330Z,6.73
2022-09-25T04:02:59.771Z,7.63
2022-09-25T04:06:08.490Z,7.83
2022-09-25T04:09:17.036Z,6.90
2022-09-25T04:12:23.432Z,6.53
2022-09-25T04:15:28.994Z,7.73
2022-09-25T04:18:36.197Z,6.60
2022-09-25T04:21:42.195Z,6.57
2022-09-25T04:24:51.459Z,5.87
2022-09-25T04:27:58.538Z,6.73
2022-09-25T04:31:06.490Z,6.60
2022-09-25T04:34:09.524Z,7.07
2022-09-25T04:37:17.164Z,6.63
2022-09-25T04:40:25.526Z,5.30
2022-09-25T04:43:32.569Z,5.57
2022-09-25T04:46:38.627Z,7.50
2022-09-25T04:49:45.067Z,7.40
2022-09-25T04:52:51.608Z,4.93
2022-09-25T04:56:04.527Z,7.70
2022-09-25T04:59:11.964Z,7.10
2022-09-25T05:02:18.457Z,6.40
2022-09-25T05:05:27.547Z,7.27
2022-09-25T05:08:33.964Z,6.60
2022-09-25T05:11:42.582Z,7.33
2022-09-25T05:14:49.247Z,8.00
2022-09-25T05:18:02.888Z,7.20
2022-09-25T05:21:09.677Z,9.97
2022-09-25T05:24:15.273Z,6.80
2022-09-25T05:27:24.508Z,6.33
2022-09-25T05:30:32.206Z,6.70
2022-09-25T05:33:38.947Z,6.23
2022-09-25T05:36:44.748Z,6.03
2022-09-25T05:39:51.341Z,6.53
2022-09-25T05:43:03.642Z,7.33
2022-09-25T05:46:10.899Z,5.77
2022-09-25T05:49:16.568Z,6.33
2022-09-25T05:52:22.988Z,8.17
2022-09-25T05:55:29.196Z,6.23
2022-09-25T05:58:38.946Z,8.23
2022-09-25T06:01:44.814Z,7.90
2022-09-25T06:04:51.253Z,6.83
2022-09-25T06:07:57.390Z,8.60
2022-09-25T06:11:04.358Z,10.23
2022-09-25T06:14:13.852Z,9.67
2022-09-25T06:17:20.418Z,9.27
2022-09-25T06:20:26.498Z,8.60
2022-09-25T06:23:33.403Z,9.00
2022-09-25T06:26:39.143Z,11.80
2022-09-25T06:29:48.379Z,11.80
2022-09-25T06:33:00.134Z,9.33
2022-09-25T06:36:09.190Z,9.90
2022-09-25T06:39:14.994Z,9.23
2022-09-25T06:42:21.520Z,9.00
2022-09-25T06:45:32.652Z,9.83
2022-09-25T06:48:39.663Z,10.60
2022-09-25T06:51:45.252Z,8.33
2022-09-25T06:54:51.664Z,10.33
2022-09-25T06:57:59.057Z,10.37
2022-09-25T07:01:11.985Z,8.10
2022-09-25T07:04:15.280Z,9.17
2022-09-25T07:07:24.408Z,8.23
2022-09-25T07:10:30.283Z,8.53
2022-09-25T07:13:39.419Z,6.87
2022-09-25T07:16:50.908Z,7.40
2022-09-25T07:19:57.662Z,6.80
2022-09-25T07:23:04.155Z,7.40
2022-09-25T07:26:12.370Z,6.40
2022-09-25T07:29:18.743Z,7.43
2022-09-25T07:32:27.966Z,5.40
2022-09-25T07:35:33.754Z,8.10
2022-09-25T07:38:40.183Z,5.77
2022-09-25T07:41:45.741Z,5.47
2022-09-25T07:44:52.624Z,5.37
2022-09-25T07:48:03.751Z,5.13
2022-09-25T07:51:11.974Z,6.30
2022-09-25T07:54:17.563Z,5.90
2022-09-25T07:57:23.975Z,6.17
2022-09-25T08:00:29.788Z,6.37
2022-09-25T08:03:40.550Z,5.67
2022-09-25T08:06:46.364Z,5.57
2022-09-25T08:09:52.840Z,5.20
2022-09-25T08:12:58.493Z,6.13
2022-09-25T08:16:06.786Z,6.10
2022-09-25T08:19:18.158Z,6.67
2022-09-25T08:22:24.594Z,5.13
2022-09-25T08:25:30.113Z,6.53
2022-09-25T08:28:37.110Z,6.43
2022-09-25T08:31:42.648Z,6.07
2022-09-25T08:34:52.005Z,5.57
2022-09-25T08:37:57.533Z,5.80
2022-09-25T08:41:08.509Z,5.63
2022-09-25T08:44:23.435Z,5.60
2022-09-25T08:47:47.226Z,5.07
2022-09-25T08:50:55.569Z,5.10
2022-09-25T08:54:03.321Z,5.03
2022-09-25T08:57:18.273Z,4.90
2022-09-25T09:00:27.234Z,4.83
2022-09-25T09:03:35.970Z,6.03
2022-09-25T09:06:49.802Z,5.07
2022-09-25T09:10:09.800Z,5.40
2022-09-25T09:13:24.979Z,4.13
2022-09-25T09:16:36.531Z,4.47
2022-09-25T09:19:47.344Z,4.97
2022-09-25T09:22:55.742Z,5.37
2022-09-25T09:26:05.800Z,5.07
2022-09-25T09:29:30.599Z,4.90
2022-09-25T09:33:09.413Z,5.03
2022-09-25T09:36:22.970Z,6.07
2022-09-25T09:39:41.816Z,4.37
2022-09-25T09:42:53.855Z,5.57
2022-09-25T09:46:07.288Z,4.93
2022-09-25T09:49:19.297Z,5.17
2022-09-25T09:52:28.864Z,5.13
2022-09-25T09:55:44.068Z,5.17
2022-09-25T09:58:54.502Z,5.67
2022-09-25T10:02:05.962Z,5.07
2022-09-25T10:05:21.682Z,5.53
2022-09-25T10:08:27.489Z,5.97
2022-09-25T10:11:37.833Z,7.07
2022-09-25T10:14:48.556Z,5.87
2022-09-25T10:17:57.124Z,5.10
2022-09-25T10:21:09.026Z,4.87
2022-09-25T10:24:53.497Z,5.70
2022-09-25T10:27:59.708Z,5.07
2022-09-25T10:31:09.174Z,4.30
2022-09-25T10:34:24.553Z,5.83
2022-09-25T10:37:37.785Z,5.00
2022-09-25T10:40:46.857Z,4.87
2022-09-25T10:43:55.943Z,4.87
2022-09-25T10:47:48.871Z,4.67
2022-09-25T10:51:10.192Z,5.00
2022-09-25T10:54:18.612Z,4.40
2022-09-25T10:57:38.549Z,4.33
2022-09-25T11:00:55.231Z,4.17
2022-09-25T11:04:02.821Z,4.30
2022-09-25T11:07:18.522Z,3.60
2022-09-25T11:10:27.148Z,5.07
2022-09-25T11:13:43.255Z,3.83
2022-09-25T11:16:53.481Z,4.47
2022-09-25T11:20:27.864Z,4.33
2022-09-25T11:23:42.138Z,4.37
2022-09-25T11:26:53.504Z,4.67
2022-09-25T11:30:07.048Z,4.87
2022-09-25T11:33:23.642Z,5.10
2022-09-25T11:36:35.793Z,4.30
2022-09-25T11:40:03.255Z,5.40
2022-09-25T11:43:12.504Z,4.53
2022-09-25T11:46:27.098Z,4.70
2022-09-25T11:49:36.254Z,5.37
2022-09-25T11:52:44.575Z,3.77
2022-09-25T11:56:06.815Z,3.63
2022-09-25T11:59:31.182Z,3.70
2022-09-25T12:02:57.066Z,4.07
2022-09-25T12:06:30.314Z,4.23
2022-09-25T12:09:54.549Z,3.60
2022-09-25T12:13:08.118Z,2.80
2022-09-25T12:16:22.754Z,4.13
2022-09-25T12:19:40.725Z,3.30
2022-09-25T12:22:56.005Z,2.80
2022-09-25T12:26:18.873Z,3.47
2022-09-25T12:29:40.887Z,3.00
2022-09-25T12:33:07.539Z,3.03
2022-09-25T12:36:22.700Z,3.77
2022-09-25T12:39:37.353Z,3.23
2022-09-25T12:42:51.028Z,3.23
2022-09-25T12:46:02.931Z,3.67
2022-09-25T12:49:16.899Z,4.23
2022-09-25T12:52:29.562Z,4.67
2022-09-25T12:55:42.070Z,4.07
2022-09-25T12:58:54.597Z,3.97
2022-09-25T13:02:08.270Z,4.40
2022-09-25T13:05:22.128Z,4.10
2022-09-25T13:08:41.875Z,4.20
2022-09-25T13:11:53.327Z,4.90
2022-09-25T13:15:04.443Z,5.03
2022-09-25T13:18:28.157Z,3.93
2022-09-25T13:21:38.678Z,3.67
2022-09-25T13:24:52.679Z,3.07
2022-09-25T13:28:08.436Z,3.93
2022-09-25T13:31:17.002Z,3.40
2022-09-25T13:34:26.704Z,3.23
2022-09-25T13:37:35.624Z,3.13
2022-09-25T13:40:49.637Z,3.93
2022-09-25T13:44:28.692Z,3.83
2022-09-25T13:48:07.279Z,3.60
2022-09-25T13:51:37.666Z,3.50
2022-09-25T13:54:44.224Z,3.23
2022-09-25T13:58:07.607Z,3.43
2022-09-25T14:01:32.616Z,3.60
2022-09-25T14:04:40.293Z,3.53
2022-09-25T14:07:47.921Z,4.23
2022-09-25T14:10:57.486Z,3.17
2022-09-25T14:14:11.602Z,3.70
2022-09-25T14:17:19.165Z,4.23
2022-09-25T14:20:35.444Z,3.73
2022-09-25T14:23:56.378Z,3.93
2022-09-25T14:27:22.802Z,3.33
2022-09-25T14:30:33.077Z,3.50
2022-09-25T14:34:05.866Z,3.63
2022-09-25T14:37:29.451Z,3.63
2022-09-25T14:40:40.525Z,3.57
2022-09-25T14:44:10.134Z,3.37
2022-09-25T14:47:21.769Z,3.73
2022-09-25T14:50:31.988Z,3.73
2022-09-25T14:53:42.730Z,3.60
2022-09-25T14:56:51.742Z,4.57
2022-09-25T15:00:01.198Z,3.67
2022-09-25T15:03:16.535Z,3.87
2022-09-25T15:06:31.820Z,3.83
2022-09-25T15:09:47.325Z,4.13
2022-09-25T15:12:55.530Z,3.90
2022-09-25T15:16:29.110Z,4.40
2022-09-25T15:19:44.957Z,4.00
2022-09-25T15:22:55.950Z,4.00
2022-09-25T15:26:02.573Z,4.23
2022-09-25T15:29:18.554Z,4.87
2022-09-25T15:32:28.629Z,4.13
2022-09-25T15:35:38.455Z,3.70
2022-09-25T15:38:45.460Z,4.33
2022-09-25T15:41:51.361Z,3.90
2022-09-25T15:45:03.320Z,3.87
2022-09-25T15:48:24.384Z,4.00
2022-09-25T15:51:36.485Z,3.63
2022-09-25T15:54:49.284Z,4.33
2022-09-25T15:57:58.182Z,3.43
2022-09-25T16:01:22.511Z,3.93
2022-09-25T16:04:44.092Z,4.07
2022-09-25T16:07:52.622Z,3.90
2022-09-25T16:11:07.971Z,3.73
2022-09-25T16:14:23.237Z,4.00
2022-09-25T16:17:36.501Z,4.33
2022-09-25T16:20:44.611Z,4.13
2022-09-25T16:24:00.010Z,4.13
2022-09-25T16:27:08.336Z,4.43
2022-09-25T16:30:20.070Z,4.60
2022-09-25T16:33:31.329Z,4.40
2022-09-25T16:36:43.810Z,4.50
2022-09-25T16:40:11.799Z,4.57
2022-09-25T16:43:29.075Z,4.70
2022-09-25T16:46:34.823Z,5.47
2022-09-25T16:49:43.723Z,5.23
2022-09-25T16:52:49.928Z,5.53
2022-09-25T16:55:59.312Z,5.03
2022-09-25T16:59:13.896Z,6.57
2022-09-25T17:02:33.862Z,6.23
2022-09-25T17:05:39.564Z,7.17
2022-09-25T17:08:47.195Z,8.70
2022-09-25T17:12:03.401Z,7.37
2022-09-25T17:15:16.374Z,6.27
2022-09-25T17:18:24.267Z,7.37
2022-09-25T17:21:30.828Z,6.13
2022-09-25T17:24:36.664Z,6.37
2022-09-25T17:27:45.891Z,7.20
2022-09-25T17:30:51.548Z,8.60
2022-09-25T17:33:58.109Z,6.60
2022-09-25T17:37:03.760Z,7.63
2022-09-25T17:40:10.818Z,6.80
2022-09-25T17:43:19.884Z,7.63
2022-09-25T17:46:26.765Z,6.67
2022-09-25T17:49:32.578Z,6.27
2022-09-25T17:52:39.579Z,7.20
2022-09-25T17:55:51.305Z,7.40
2022-09-25T17:59:03.478Z,6.27
2022-09-25T18:02:17.153Z,7.23
2022-09-25T18:05:26.044Z,7.80
2022-09-25T18:08:31.589Z,6.70
2022-09-25T18:11:42.504Z,7.30
2022-09-25T18:14:50.992Z,6.23
2022-09-25T18:17:57.994Z,6.27
2022-09-25T18:21:19.179Z,7.00
2022-09-25T18:24:25.662Z,6.63
2022-09-25T18:27:33.435Z,7.47
2022-09-25T18:30:42.714Z,8.47
2022-09-25T18:33:48.392Z,6.43
2022-09-25T18:36:57.491Z,7.70
2022-09-25T18:40:03.383Z,6.20
2022-09-25T18:43:10.186Z,6.43
2022-09-25T18:46:18.729Z,6.53
2022-09-25T18:49:26.579Z,6.77
2022-09-25T18:52:32.597Z,8.10
2022-09-25T18:55:41.365Z,8.57
2022-09-25T18:58:47.612Z,10.67
2022-09-25T19:01:57.938Z,7.67
2022-09-25T19:05:03.764Z,9.93
2022-09-25T19:08:10.405Z,9.50
2022-09-25T19:11:17.153Z,8.43
2022-09-25T19:14:24.257Z,8.13
2022-09-25T19:17:32.613Z,7.33
2022-09-25T19:20:39.060Z,7.33
2022-09-25T19:23:48.548Z,7.83
2022-09-25T19:26:55.192Z,7.23
2022-09-25T19:30:00.753Z,7.93
2022-09-25T19:33:10.370Z,8.43
2022-09-25T19:36:19.529Z,9.13
2022-09-25T19:39:26.135Z,8.20
2022-09-25T19:42:37.555Z,8.67
2022-09-25T19:45:52.059Z,8.67
2022-09-25T19:49:01.074Z,11.83
2022-09-25T19:52:08.444Z,8.73
2022-09-25T19:55:13.999Z,9.13
2022-09-25T19:58:23.251Z,8.93
2022-09-25T20:01:31.058Z,10.37
2022-09-25T20:04:40.366Z,9.73
2022-09-25T20:07:46.825Z,10.40
2022-09-25T20:10:53.452Z,9.57
2022-09-25T20:13:59.289Z,10.40
2022-09-25T20:17:10.124Z,9.90
2022-09-25T20:20:19.001Z,11.03
2022-09-25T20:23:25.387Z,10.10
2022-09-25T20:26:32.962Z,11.10
2022-09-25T20:29:39.461Z,10.10
2022-09-25T20:32:45.273Z,12.67
2022-09-25T20:35:54.755Z,10.77
2022-09-25T20:39:01.153Z,10.87
2022-09-25T20:42:08.088Z,12.67
2022-09-25T20:45:14.387Z,13.37
2022-09-25T20:48:21.906Z,11.20
2022-09-25T20:51:31.574Z,11.40
2022-09-25T20:54:40.335Z,11.47
2022-09-25T20:57:45.927Z,12.60
2022-09-25T21:00:53.553Z,13.83
2022-09-25T21:04:03.616Z,15.93
2022-09-25T21:07:16.706Z,17.50
2022-09-25T21:10:23.178Z,15.77
2022-09-25T21:13:37.053Z,16.07
2022-09-25T21:16:42.926Z,17.70
2022-09-25T21:19:50.139Z,16.43
2022-09-25T21:22:58.591Z,15.10
2022-09-25T21:26:10.334Z,14.50
2022-09-25T21:29:18.052Z,17.07
2022-09-25T21:32:24.444Z,15.50
2022-09-25T21:35:29.971Z,15.90
2022-09-25T21:38:40.061Z,13.07
2022-09-25T21:41:46.661Z,16.17
2022-09-25T21:44:53.265Z,18.10
2022-09-25T21:47:58.876Z,18.40
2022-09-25T21:51:07.968Z,17.13
2022-09-25T21:54:17.724Z,14.60
2022-09-25T21:57:25.021Z,17.03
2022-09-25T22:00:30.700Z,15.93
2022-09-25T22:03:39.274Z,18.90
2022-09-25T22:06:47.649Z,17.87
2022-09-25T22:09:56.829Z,17.93
2022-09-25T22:13:03.841Z,17.23
2022-09-25T22:16:12.883Z,14.53
2022-09-25T22:19:20.825Z,14.60
2022-09-25T22:22:27.241Z,13.43
2022-09-25T22:25:36.892Z,14.53
2022-09-25T22:28:43.692Z,14.47
2022-09-25T22:31:49.895Z,16.13
2022-09-25T22:34:56.303Z,14.83
2022-09-25T22:38:02.868Z,15.53
2022-09-25T22:41:14.072Z,16.10
2022-09-25T22:44:19.992Z,17.37
2022-09-25T22:47:26.567Z,14.13
2022-09-25T22:50:32.142Z,16.20
2022-09-25T22:53:39.170Z,13.93
2022-09-25T22:56:47.688Z,14.83
2022-09-25T22:59:54.366Z,16.67
2022-09-25T23:02:59.894Z,15.67
2022-09-25T23:06:08.429Z,17.03
2022-09-25T23:09:17.071Z,17.47
2022-09-25T23:12:30.475Z,14.50
2022-09-25T23:15:40.122Z,15.47
2022-09-25T23:18:46.518Z,13.17
2022-09-25T23:21:54.729Z,15.63
2022-09-25T23:25:01.139Z,13.53
2022-09-25T23:28:09.799Z,12.77
2022-09-25T23:31:19.298Z,12.80
2022-09-25T23:34:25.067Z,13.30
2022-09-25T23:37:32.135Z,13.93
2022-09-25T23:40:37.833Z,12.40
2022-09-25T23:43:48.365Z,14.30
2022-09-25T23:46:53.920Z,14.50
2022-09-25T23:50:04.395Z,12.67
2022-09-25T23:53:10.451Z,14.67
2022-09-25T23:56:18.924Z,14.27
2022-09-25T23:59:27.340Z,12.10
